DSNT2: Lake Texoma, Denison Dam

Data processed at Wed Jun 16 2021 22:59


All information presented herein is the property of the government of the United States of America and may be revised or deleted at any time without prior notice.
Dissemination of this information without the expressed written consent of the Public Affairs Office, Tulsa District U.S. Army Corps of Engineers is strictly prohibited.
These data are gathered electronically and, as presented, have not undergone any form of quality control. These data are not guaranteed to be valid or correct.
Go to home page.
Go to station list.
Go to home page.

Upstream stations:

Downstream station:
Previous Day
Next Day
Current Day
    
SHEF ID:       DSNT2     Lake Texoma
STATION TYPE:  Reservoir
Flood Pool:  Bottom =   619.00, Top =   640.00

               PRECIP PRECIP(A) ELEVATION   STORAGE   TW-ELEV    INFLOW   RELEASE  AIR-TEMP  WIND-DIRWIND-SPEED REL-HUMID SOLAR-RAD   VOLTAGE  BAT-LOAD
                   in        in        ft     ac-ft        ft       cfs       cfs         F       deg       mph         %      W/m2      volt      volt
              Ccp-Rev   Ccp-Rev   Ccp-Rev   Ccp-Rev   Ccp-Rev  Rev-Regi  Rev-Regi   Ccp-Rev   Ccp-Rev   Ccp-Rev   Ccp-Rev   Ccp-Rev   Ccp-Rev   Ccp-Rev
(US/Central)
06/16 00:00      0.00      ----    620.72   2795755    506.26      6304     12706     79.16    151.10      3.60     94.10      0.00     12.87     12.60
06/16 01:00      0.00      ----    620.71   2794857    506.27      8478     12856     78.33    168.00      2.80     91.83      0.00     12.87     12.58
06/16 02:00      0.00      ----    620.71   2794857    506.26      8478     12856     77.65    180.10      4.60     87.90      0.00     12.86     12.58
06/16 03:00      0.00      ----    620.71   2794857    506.28      6334     12856     77.49    179.80      4.20     82.29      0.00     12.85     12.55
06/16 04:00      0.00      ----    620.70   2793958    506.28      6334     12856     76.89    202.70      4.00     83.67      0.00     12.83     12.54
06/16 05:00      0.00      ----    620.69   2793060    506.28      6303     12855     76.05    197.30      3.60     85.13      0.00     12.82     12.53
06/16 06:00      0.00      ----    620.68   2792162    506.28      4129     12855     74.62    173.30      2.10     91.21      0.00     12.80     12.51
06/16 07:00      0.00      ----    620.68   2792162    506.28      6303     12705     73.13    164.80      1.40     98.71      9.30     12.93     12.50
06/16 08:00      0.00      ----    620.67   2791263    506.28      6303     12854     75.88     18.50      0.30     94.25    133.00     13.77     12.70
06/16 09:00      0.00      ----    620.67   2791263    506.28      6302     12854     77.38     71.10      1.20     88.85    313.90     13.55     13.45
06/16 10:00      0.00      ----    620.66   2790365    506.28      6332     12854     81.72     51.10      1.60     82.23    495.70     13.51     13.26
06/16 11:00      0.00      ----    620.65   2789467    506.29      6302     12854     82.20    332.40      3.70     77.76    655.80     13.53     13.22
06/16 12:00      0.00      ----    620.65   2789467    506.28      6302     12854     84.16    330.70      5.40     68.44    353.70     13.64     13.18
06/16 13:00      0.00      ----    620.64   2788568    506.28      6302     12703     86.00    305.90      5.60     62.29    804.00     14.23     13.19
06/16 14:00      0.00      ----    620.64   2788568    506.28      6301     12853     86.63    309.40      6.40     60.00    888.20     13.95     13.25
06/16 15:00      0.00      ----    620.63   2787670    506.28      6301     12853     88.02    308.20      5.60     56.15    805.60     13.59     13.24
06/16 16:00      0.00      ----    620.62   2786772    506.28      6331     12853     87.93    323.20      7.50     57.51    738.80     13.83     13.15
06/16 17:00      0.00      ----    620.62   2786772    506.28      4127     12852     88.93    328.50      4.70     55.64    661.80     13.64     13.13
06/16 18:00      0.00      ----    620.61   2785873    506.28      4141     12852     91.02     60.40      4.10     41.79    506.10     14.22     13.09
06/16 19:00      0.00      ----    620.60   2784975    506.28      4156     12702     91.06     92.60      3.50     44.34    263.80     14.28     13.09
06/16 20:00      0.00      ----    620.58   2783178    506.30      1952     13001     89.83     86.70      2.50     52.61    133.30     13.23     13.19
06/16 21:00      0.00      ----    620.58   2783178    506.29      1967     12851     87.13    108.50      2.20     62.65      7.10     12.94     12.88
06/16 22:00      0.00      ----    620.57   2782280    506.30      1921     12701     84.42    131.50      3.10     66.60      0.00     12.89     12.63
06/16 23:00      ----      ----      ----      ----      ----      ----      ----      ----      ----      ----      ----      ----      ----      ----